Time;durP1;ratioP1;P1;durP2;ratioP2;P2;SDS_P1;SDS_P2;PMS_P1;PMS_P2;Temp;Humidity;BMP_temperature;BMP_pressure;BME280_temperature;BME280_humidity;BME280_pressure;Samples;Min_cycle;Max_cycle;Signal;HPM_P1;HPM_P2
2021/07/22 00:00:05;;;;;;;5.53;4.27;;;;;;;17.37;91.39;101102.09;5071589;28;20224;-72
2021/07/22 00:02:31;;;;;;;4.40;4.00;;;;;;;17.42;90.58;101102.69;5072649;28;20236;-72
2021/07/22 00:04:56;;;;;;;4.73;4.23;;;;;;;17.49;90.40;101104.88;5072876;28;20174;-72
2021/07/22 00:07:23;;;;;;;4.53;4.13;;;;;;;17.52;90.33;101099.50;5073207;28;20222;-72
2021/07/22 00:09:48;;;;;;;4.87;4.37;;;;;;;17.52;89.55;101098.69;5073200;28;20756;-73
2021/07/22 00:12:14;;;;;;;4.57;3.50;;;;;;;17.48;89.47;101097.72;5072702;28;20606;-72
2021/07/22 00:14:41;;;;;;;4.17;3.40;;;;;;;17.46;89.79;101091.75;5072770;28;20174;-72
2021/07/22 00:17:07;;;;;;;3.73;3.40;;;;;;;17.45;90.17;101088.19;5072590;28;20245;-72
2021/07/22 00:19:34;;;;;;;6.17;3.20;;;;;;;17.44;90.26;101086.56;5072545;28;20245;-72
2021/07/22 00:22:01;;;;;;;4.33;3.93;;;;;;;17.36;90.69;101092.16;5072522;28;20202;-72
2021/07/22 00:24:27;;;;;;;4.43;4.03;;;;;;;17.32;90.94;101092.06;5072661;28;20270;-72
2021/07/22 00:26:53;;;;;;;3.53;3.23;;;;;;;17.30;91.13;101088.03;5072597;28;20170;-72
2021/07/22 00:29:19;;;;;;;3.70;3.40;;;;;;;17.30;91.44;101090.78;5072477;28;20182;-73
2021/07/22 00:31:44;;;;;;;4.10;3.63;;;;;;;17.34;91.44;101092.50;5070905;28;20188;-72
2021/07/22 00:34:10;;;;;;;4.43;3.80;;;;;;;17.38;90.54;101087.94;5072584;28;20216;-73
2021/07/22 00:36:35;;;;;;;4.10;3.73;;;;;;;17.39;90.65;101086.78;5072462;28;20198;-72
2021/07/22 00:39:01;;;;;;;5.17;4.03;;;;;;;17.44;91.09;101094.84;5072296;28;20653;-72
2021/07/22 00:41:26;;;;;;;4.03;3.40;;;;;;;17.44;91.63;101089.31;5072084;28;20178;-72
2021/07/22 00:43:51;;;;;;;4.10;3.70;;;;;;;17.39;91.13;101089.56;5072286;28;20170;-71
2021/07/22 00:46:17;;;;;;;4.53;4.10;;;;;;;17.44;91.58;101086.56;5072166;28;20178;-72
2021/07/22 00:48:42;;;;;;;4.10;3.70;;;;;;;17.47;91.02;101090.59;5072193;28;20178;-72
2021/07/22 00:51:07;;;;;;;4.37;3.80;;;;;;;17.46;91.45;101087.03;5072174;28;20181;-73
2021/07/22 00:53:34;;;;;;;3.70;3.37;;;;;;;17.44;91.23;101091.28;5072227;28;20175;-72
2021/07/22 00:55:59;;;;;;;4.27;3.87;;;;;;;17.34;91.80;101087.00;5071829;28;20671;-72
2021/07/22 00:58:25;;;;;;;4.10;3.70;;;;;;;17.30;92.91;101088.03;5071953;28;20262;-72
2021/07/22 01:00:50;;;;;;;3.97;3.60;;;;;;;17.26;93.21;101085.13;5071685;28;20232;-72
2021/07/22 01:03:15;;;;;;;3.90;3.60;;;;;;;17.27;93.10;101083.19;5071750;28;20278;-72
2021/07/22 01:05:41;;;;;;;4.17;3.77;;;;;;;17.28;92.03;101079.28;5071737;28;20261;-72
2021/07/22 01:08:06;;;;;;;4.60;4.20;;;;;;;17.31;91.93;101082.16;5071804;28;20533;-73
2021/07/22 01:10:31;;;;;;;5.33;3.93;;;;;;;17.31;92.37;101081.34;5071162;28;20253;-72
2021/07/22 01:12:57;;;;;;;5.47;3.83;;;;;;;17.23;92.49;101075.59;5071359;28;20205;-72
2021/07/22 01:15:22;;;;;;;4.23;3.70;;;;;;;17.38;92.64;101078.84;5071531;28;20513;-73
2021/07/22 01:17:49;;;;;;;5.70;3.97;;;;;;;17.47;92.64;101069.28;5071568;28;20179;-72
2021/07/22 01:20:22;;;;;;;4.63;4.17;;;;;;;17.34;91.58;101080.66;5071388;28;20174;-73
2021/07/22 01:22:49;;;;;;;4.13;3.73;;;;;;;17.47;92.19;101068.50;5071390;28;20163;-72
2021/07/22 01:25:15;;;;;;;4.80;3.87;;;;;;;17.56;92.17;101077.50;5071609;28;20178;-73
2021/07/22 01:27:41;;;;;;;3.77;3.43;;;;;;;17.53;92.30;101072.66;5071364;28;20166;-73
2021/07/22 01:30:08;;;;;;;4.30;3.90;;;;;;;17.51;92.83;101075.78;5071541;28;20755;-72
2021/07/22 01:32:33;;;;;;;4.13;3.73;;;;;;;17.46;93.03;101067.69;5071218;28;20227;-72
2021/07/22 01:34:59;;;;;;;4.33;3.93;;;;;;;17.39;92.59;101077.69;5071156;28;20166;-72
2021/07/22 01:37:24;;;;;;;3.77;3.43;;;;;;;17.39;92.56;101074.94;5071078;28;20602;-72
2021/07/22 01:39:50;;;;;;;5.73;4.10;;;;;;;17.38;93.47;101073.31;5071227;28;20649;-72
2021/07/22 01:42:15;;;;;;;4.97;3.83;;;;;;;17.39;93.60;101077.69;5070838;28;20173;-73
2021/07/22 01:44:41;;;;;;;5.20;4.70;;;;;;;17.31;92.02;101076.63;5071112;28;20681;-72
2021/07/22 01:47:06;;;;;;;5.07;4.47;;;;;;;17.34;91.84;101072.38;5071176;28;20628;-72
2021/07/22 01:49:32;;;;;;;4.23;3.83;;;;;;;17.21;91.91;101069.59;5071191;28;20173;-72
2021/07/22 01:52:01;;;;;;;4.93;3.80;;;;;;;17.17;92.16;101062.31;5070776;28;20253;-72
2021/07/22 01:54:27;;;;;;;4.47;3.93;;;;;;;17.13;92.99;101061.41;5070998;28;20704;-72
2021/07/22 01:56:53;;;;;;;4.40;3.90;;;;;;;17.10;93.27;101060.13;5070654;28;20205;-73
2021/07/22 01:59:18;;;;;;;4.20;3.83;;;;;;;17.14;93.46;101055.53;5070909;28;20531;-73
2021/07/22 02:01:43;;;;;;;5.30;4.80;;;;;;;17.19;94.21;101063.59;5070463;28;20673;-73
2021/07/22 02:04:09;;;;;;;4.27;3.80;;;;;;;17.23;94.53;101064.53;5070945;28;20576;-73
2021/07/22 02:06:34;;;;;;;3.90;3.40;;;;;;;17.34;93.99;101064.09;5070633;28;20181;-72
2021/07/22 02:09:00;;;;;;;5.03;4.20;;;;;;;17.44;93.50;101066.41;5070744;28;20170;-73
2021/07/22 02:11:25;;;;;;;3.73;3.30;;;;;;;17.52;92.94;101063.56;5070681;28;20626;-73
2021/07/22 02:13:50;;;;;;;4.63;4.20;;;;;;;17.55;92.15;101064.84;5069445;28;20644;-72
2021/07/22 02:16:16;;;;;;;4.97;3.77;;;;;;;17.56;91.91;101066.44;5070683;28;20625;-72
2021/07/22 02:18:41;;;;;;;4.43;4.03;;;;;;;17.61;92.04;101068.16;5070304;28;20167;-73
2021/07/22 02:21:07;;;;;;;7.17;4.70;;;;;;;17.24;91.86;101071.69;5070455;28;20194;-72
2021/07/22 02:23:33;;;;;;;5.07;4.37;;;;;;;16.98;93.08;101067.56;5070198;28;20178;-73
2021/07/22 02:26:02;;;;;;;4.10;3.70;;;;;;;17.07;94.53;101074.63;5070546;28;20170;-73
2021/07/22 02:28:28;;;;;;;4.60;4.20;;;;;;;17.34;94.05;101067.66;5070557;28;20528;-73
2021/07/22 02:30:53;;;;;;;5.03;4.47;;;;;;;17.47;93.54;101065.72;5070265;28;20258;-72
2021/07/22 02:33:19;;;;;;;5.13;4.57;;;;;;;17.51;92.72;101064.72;5069081;28;20177;-73
2021/07/22 02:35:44;;;;;;;5.10;4.20;;;;;;;17.51;92.29;101070.25;5070331;28;20285;-73
2021/07/22 02:38:09;;;;;;;5.03;4.23;;;;;;;17.48;91.92;101070.09;5070713;28;20171;-73
2021/07/22 02:40:35;;;;;;;3.93;3.50;;;;;;;17.35;92.63;101073.97;5070433;28;20585;-72
2021/07/22 02:43:00;;;;;;;4.23;3.87;;;;;;;17.22;93.65;101062.13;5070253;28;20506;-73
2021/07/22 02:45:25;;;;;;;4.47;4.07;;;;;;;17.17;93.87;101065.06;5070436;28;20175;-72
2021/07/22 02:47:51;;;;;;;3.60;3.30;;;;;;;17.09;94.27;101069.56;5070782;28;20182;-72
2021/07/22 02:50:16;;;;;;;5.87;3.57;;;;;;;17.01;94.37;101066.88;5070484;28;20253;-73
2021/07/22 02:52:41;;;;;;;4.43;4.00;;;;;;;16.95;94.77;101063.53;5070476;28;20214;-72
2021/07/22 02:55:07;;;;;;;4.50;4.10;;;;;;;16.99;95.32;101072.72;5070334;28;20170;-72
2021/07/22 02:57:33;;;;;;;3.90;3.50;;;;;;;17.04;95.22;101067.00;5070494;28;20293;-72
2021/07/22 02:59:59;;;;;;;5.00;4.07;;;;;;;17.06;94.77;101067.44;5070321;28;20178;-72
2021/07/22 03:02:24;;;;;;;4.40;3.80;;;;;;;17.11;94.64;101074.75;5070006;28;20594;-73
2021/07/22 03:04:49;;;;;;;5.40;3.77;;;;;;;17.13;95.29;101072.44;5070343;28;20183;-73
2021/07/22 03:07:15;;;;;;;4.40;3.93;;;;;;;17.18;95.46;101073.03;5070145;28;20182;-73
2021/07/22 03:09:40;;;;;;;4.50;3.80;;;;;;;17.16;95.45;101077.28;5070315;28;20206;-73
2021/07/22 03:12:06;;;;;;;4.73;4.27;;;;;;;17.12;95.29;101071.63;5070229;28;20210;-72
2021/07/22 03:14:31;;;;;;;4.50;4.00;;;;;;;17.12;95.65;101066.09;5070202;28;20269;-73
2021/07/22 03:16:57;;;;;;;4.83;4.20;;;;;;;16.99;95.32;101080.22;5069015;28;20261;-73
2021/07/22 03:19:22;;;;;;;5.63;4.67;;;;;;;16.97;96.29;101077.78;5069888;28;20527;-73
2021/07/22 03:21:47;;;;;;;5.00;4.50;;;;;;;17.14;96.54;101080.38;5069993;28;20163;-73
2021/07/22 03:24:13;;;;;;;4.63;4.23;;;;;;;17.23;95.77;101086.63;5070124;28;20638;-72
2021/07/22 03:26:38;;;;;;;4.50;4.10;;;;;;;17.26;95.68;101079.63;5070200;28;20179;-72
2021/07/22 03:29:03;;;;;;;5.63;4.13;;;;;;;17.29;95.20;101073.41;5065200;28;20175;-73
2021/07/22 03:31:29;;;;;;;4.90;4.50;;;;;;;17.21;95.32;101074.28;5069632;28;20194;-73
2021/07/22 03:33:55;;;;;;;4.23;3.83;;;;;;;17.14;95.82;101071.28;5071852;28;20187;-72
2021/07/22 03:36:20;;;;;;;4.67;4.27;;;;;;;17.07;95.75;101073.78;5073520;28;20242;-73
2021/07/22 03:38:45;;;;;;;5.53;4.33;;;;;;;17.06;95.83;101072.97;5073665;28;20175;-73
2021/07/22 03:41:15;;;;;;;5.30;4.43;;;;;;;17.05;95.95;101076.88;5073443;28;20176;-73
2021/07/22 03:43:41;;;;;;;5.10;4.00;;;;;;;17.10;95.95;101075.88;5073741;28;20645;-72
2021/07/22 03:46:06;;;;;;;4.10;3.70;;;;;;;17.08;96.05;101067.94;5073745;28;20177;-73
2021/07/22 03:48:31;;;;;;;5.17;4.67;;;;;;;17.07;96.01;101069.09;5078737;28;20174;-73
2021/07/22 03:50:57;;;;;;;4.67;3.90;;;;;;;17.10;95.90;101070.38;5081280;28;20658;-72
2021/07/22 03:53:22;;;;;;;5.47;4.53;;;;;;;17.06;96.72;101074.94;5074219;28;20178;-72
2021/07/22 03:55:47;;;;;;;5.17;4.67;;;;;;;17.00;96.94;101068.81;5073821;28;20597;-73
2021/07/22 03:58:13;;;;;;;5.63;4.73;;;;;;;16.99;96.70;101072.72;5073458;28;20175;-73
2021/07/22 04:00:38;;;;;;;5.60;5.10;;;;;;;16.98;96.98;101071.13;5073399;28;20189;-72
2021/07/22 04:03:07;;;;;;;5.60;4.73;;;;;;;17.00;97.41;101074.34;5073240;28;20197;-72
2021/07/22 04:05:32;;;;;;;6.27;5.57;;;;;;;16.99;98.02;101081.00;5073418;28;20198;-72
2021/07/22 04:07:58;;;;;;;5.63;5.03;;;;;;;16.96;98.85;101076.19;5073182;28;20174;-72
2021/07/22 04:10:25;;;;;;;6.53;5.37;;;;;;;16.87;99.57;101081.75;5073703;28;20166;-72
2021/07/22 04:13:01;;;;;;;4.93;4.53;;;;;;;16.84;100.00;101084.41;5073021;28;20173;-73
2021/07/22 04:15:27;;;;;;;5.27;4.77;;;;;;;16.77;100.00;101084.13;5073154;28;20171;-73
2021/07/22 04:17:54;;;;;;;6.47;5.33;;;;;;;16.73;100.00;101080.44;5073181;28;20181;-72
2021/07/22 04:20:21;;;;;;;5.80;4.80;;;;;;;16.71;100.00;101088.25;5073064;28;20263;-72
2021/07/22 04:22:47;;;;;;;7.33;5.03;;;;;;;16.69;100.00;101085.81;5071869;28;20522;-72
2021/07/22 04:25:13;;;;;;;4.90;4.40;;;;;;;16.65;100.00;101076.59;5072994;28;20253;-72
2021/07/22 04:27:39;;;;;;;5.10;4.40;;;;;;;16.66;100.00;101089.22;5073043;28;20580;-73
2021/07/22 04:30:05;;;;;;;5.03;4.50;;;;;;;16.70;99.53;101078.34;5072946;28;20243;-72
2021/07/22 04:32:30;;;;;;;9.20;4.83;;;;;;;16.78;99.21;101074.69;5072796;28;20170;-72
2021/07/22 04:34:56;;;;;;;5.40;4.90;;;;;;;16.78;98.78;101078.28;5071492;28;20189;-72
2021/07/22 04:37:21;;;;;;;5.53;5.03;;;;;;;16.85;98.24;101072.22;5072515;28;20233;-73
2021/07/22 04:39:47;;;;;;;4.77;4.37;;;;;;;16.83;98.08;101072.56;5072748;28;20203;-72
2021/07/22 04:42:12;;;;;;;5.93;4.60;;;;;;;16.84;97.31;101074.16;5072452;28;20198;-72
2021/07/22 04:44:38;;;;;;;5.70;4.70;;;;;;;16.84;98.22;101076.13;5071802;28;20189;-72
2021/07/22 04:47:04;;;;;;;6.30;5.30;;;;;;;16.78;98.77;101080.22;5072450;28;20187;-72
2021/07/22 04:49:29;;;;;;;6.67;4.90;;;;;;;16.75;99.75;101069.84;5072346;28;20182;-72
2021/07/22 04:51:57;;;;;;;5.07;4.57;;;;;;;16.73;100.00;101066.63;5072211;28;20722;-72
2021/07/22 04:54:22;;;;;;;4.67;4.10;;;;;;;16.72;99.98;101076.88;5072339;28;20206;-73
2021/07/22 04:56:48;;;;;;;5.83;5.30;;;;;;;16.73;100.00;101078.47;5072242;28;20230;-73
2021/07/22 04:59:13;;;;;;;7.07;5.23;;;;;;;16.73;100.00;101077.66;5072401;28;20206;-72
2021/07/22 05:01:38;;;;;;;8.00;5.33;;;;;;;16.76;99.81;101069.50;5071840;28;20190;-73
2021/07/22 05:04:05;;;;;;;5.33;4.83;;;;;;;16.77;100.00;101062.84;5072189;28;20213;-73
2021/07/22 05:06:30;;;;;;;5.50;5.00;;;;;;;16.75;100.00;101075.38;5071978;28;20174;-73
2021/07/22 05:08:56;;;;;;;7.43;5.60;;;;;;;16.72;100.00;101068.59;5071951;28;20228;-72
2021/07/22 05:11:21;;;;;;;6.70;5.70;;;;;;;16.69;100.00;101066.50;5071873;28;20646;-72
2021/07/22 05:13:46;;;;;;;6.43;5.83;;;;;;;16.68;100.00;101064.91;5071999;28;20182;-73
2021/07/22 05:16:12;;;;;;;6.10;5.50;;;;;;;16.69;100.00;101069.25;5071861;28;20195;-72
2021/07/22 05:18:39;;;;;;;5.33;4.83;;;;;;;16.72;100.00;101076.88;5071759;28;20185;-73
2021/07/22 05:21:05;;;;;;;5.80;4.83;;;;;;;16.74;100.00;101065.47;5070293;28;20181;-72
2021/07/22 05:23:32;;;;;;;5.70;5.20;;;;;;;16.74;100.00;101073.75;5071757;28;20178;-72
2021/07/22 05:25:57;;;;;;;7.33;5.73;;;;;;;16.71;100.00;101064.22;5071719;28;20209;-72
2021/07/22 05:28:22;;;;;;;5.80;5.23;;;;;;;16.73;100.00;101064.69;5071693;28;20210;-72
2021/07/22 05:30:48;;;;;;;6.57;5.90;;;;;;;16.72;100.00;101065.03;5071488;28;20202;-72
2021/07/22 05:33:14;;;;;;;6.20;5.40;;;;;;;16.76;100.00;101071.47;5071557;28;20174;-72
2021/07/22 05:35:39;;;;;;;6.83;6.17;;;;;;;16.83;100.00;101069.00;5071394;28;20598;-72
2021/07/22 05:38:04;;;;;;;7.30;6.60;;;;;;;16.92;100.00;101069.69;5071460;28;20495;-72
2021/07/22 05:40:30;;;;;;;6.53;5.67;;;;;;;16.97;100.00;101077.78;5071706;28;20690;-72
2021/07/22 05:42:55;;;;;;;7.80;7.03;;;;;;;17.00;100.00;101085.38;5071364;28;20185;-72
2021/07/22 05:45:20;;;;;;;6.37;5.77;;;;;;;17.00;100.00;101079.88;5071644;28;20221;-72
2021/07/22 05:47:46;;;;;;;12.23;6.27;;;;;;;17.02;100.00;101076.75;5071310;28;20676;-72
2021/07/22 05:50:11;;;;;;;6.77;6.03;;;;;;;17.04;100.00;101078.03;5071470;28;20266;-72
2021/07/22 05:52:36;;;;;;;10.13;5.77;;;;;;;17.07;100.00;101076.53;5071021;28;20225;-72
2021/07/22 05:55:03;;;;;;;6.27;5.67;;;;;;;17.08;100.00;101078.19;5071426;28;20171;-72
2021/07/22 05:57:28;;;;;;;7.00;6.33;;;;;;;17.08;100.00;101081.75;5070827;28;20206;-72
2021/07/22 05:59:54;;;;;;;6.93;6.27;;;;;;;17.14;100.00;101083.13;5071074;28;20256;-73
2021/07/22 06:02:19;;;;;;;6.33;5.73;;;;;;;17.18;100.00;101089.59;5070153;28;20235;-72
2021/07/22 06:04:44;;;;;;;8.53;6.17;;;;;;;17.18;100.00;101084.06;5070742;28;20236;-74
2021/07/22 06:07:10;;;;;;;10.13;6.00;;;;;;;17.18;100.00;101083.25;5070640;28;20182;-73
2021/07/22 06:09:35;;;;;;;8.33;6.43;;;;;;;17.22;100.00;101089.75;5070487;28;20230;-73
2021/07/22 06:12:00;;;;;;;7.60;6.30;;;;;;;17.30;100.00;101096.31;5069080;28;20669;-74
2021/07/22 06:14:26;;;;;;;7.33;6.63;;;;;;;17.36;100.00;101090.25;5069340;28;20167;-74
2021/07/22 06:16:51;;;;;;;7.97;7.17;;;;;;;17.46;100.00;101088.97;5070240;28;20198;-74
2021/07/22 06:19:17;;;;;;;8.70;7.50;;;;;;;17.53;100.00;101086.47;5070500;28;20178;-72
2021/07/22 06:21:42;;;;;;;7.37;6.73;;;;;;;17.56;100.00;101091.31;5070592;28;20175;-73
2021/07/22 06:24:07;;;;;;;8.17;6.80;;;;;;;17.58;99.95;101090.97;5069102;28;20182;-72
2021/07/22 06:26:34;;;;;;;9.03;7.00;;;;;;;17.61;100.00;101085.56;5070578;28;20170;-72
2021/07/22 06:29:01;;;;;;;10.00;7.80;;;;;;;17.60;99.94;101092.22;5070468;28;20521;-72
2021/07/22 06:31:27;;;;;;;8.17;7.20;;;;;;;17.67;100.00;101092.50;5070192;28;20182;-72
2021/07/22 06:33:52;;;;;;;8.33;7.47;;;;;;;17.35;100.00;101090.56;5068926;28;20182;-72
2021/07/22 06:36:17;;;;;;;9.63;8.40;;;;;;;17.58;99.83;101096.50;5063750;28;20214;-72
2021/07/22 06:38:42;;;;;;;10.03;7.13;;;;;;;17.65;99.35;101108.59;5068934;28;20178;-72
2021/07/22 06:41:10;;;;;;;8.00;7.20;;;;;;;17.74;99.89;101094.69;5070804;28;20604;-72
2021/07/22 06:43:35;;;;;;;8.10;7.30;;;;;;;17.78;99.50;101101.16;5070427;28;20175;-71
2021/07/22 06:46:01;;;;;;;8.70;7.80;;;;;;;17.84;99.12;101097.84;5068901;28;20185;-72
2021/07/22 06:48:26;;;;;;;7.73;6.83;;;;;;;17.98;98.87;101096.69;5070520;28;20257;-72
2021/07/22 06:50:52;;;;;;;7.93;7.23;;;;;;;17.96;98.09;101097.03;5067068;28;20186;-72
2021/07/22 06:53:18;;;;;;;9.90;7.57;;;;;;;17.87;96.95;101093.56;5070326;28;20184;-72
2021/07/22 06:55:43;;;;;;;8.03;7.27;;;;;;;17.81;97.26;101101.28;5070092;28;20583;-72
2021/07/22 06:58:10;;;;;;;8.83;6.47;;;;;;;17.84;98.36;101094.25;5070142;28;20171;-72
2021/07/22 07:00:36;;;;;;;9.33;7.27;;;;;;;17.85;98.00;101087.56;5070098;28;20228;-72
2021/07/22 07:03:06;;;;;;;8.97;8.17;;;;;;;17.93;98.24;101091.38;5070017;28;20555;-72
2021/07/22 07:05:34;;;;;;;8.27;7.60;;;;;;;18.06;97.77;101093.78;5069995;28;20173;-72
2021/07/22 07:08:00;;;;;;;8.67;7.77;;;;;;;18.18;96.55;101089.41;5070507;28;20166;-72
2021/07/22 07:10:26;;;;;;;9.07;7.63;;;;;;;18.33;96.49;101089.50;5074159;28;20182;-73
2021/07/22 07:12:52;;;;;;;9.20;8.30;;;;;;;18.39;94.26;101093.66;5074040;28;20170;-73
2021/07/22 07:15:18;;;;;;;8.40;7.70;;;;;;;18.51;94.72;101094.78;5074015;28;20167;-73
2021/07/22 07:17:44;;;;;;;8.80;8.00;;;;;;;18.50;94.65;101093.16;5073964;28;20728;-74
2021/07/22 07:20:09;;;;;;;7.27;6.67;;;;;;;18.49;94.50;101094.31;5072303;28;20262;-73
2021/07/22 07:22:35;;;;;;;8.40;7.50;;;;;;;18.71;94.35;101093.84;5073742;28;20171;-73
2021/07/22 07:25:00;;;;;;;8.80;7.10;;;;;;;18.72;93.30;101098.22;5073754;28;20232;-73
2021/07/22 07:27:25;;;;;;;7.80;7.00;;;;;;;18.73;92.22;101102.63;5073871;28;20181;-74
2021/07/22 07:29:51;;;;;;;8.20;7.40;;;;;;;18.81;92.43;101096.13;5073733;28;20621;-74
2021/07/22 07:32:16;;;;;;;7.63;6.70;;;;;;;18.77;91.43;101099.94;5073503;28;20171;-74
2021/07/22 07:34:41;;;;;;;8.97;7.87;;;;;;;18.44;92.87;101093.41;5073604;28;20178;-73
2021/07/22 07:37:07;;;;;;;9.10;6.63;;;;;;;18.70;94.36;101095.00;5073245;28;20194;-74
2021/07/22 07:39:34;;;;;;;8.87;7.87;;;;;;;18.84;92.53;101098.19;5073451;28;20505;-73
2021/07/22 07:42:01;;;;;;;11.73;8.27;;;;;;;18.89;90.79;101094.38;5073350;28;20653;-74
2021/07/22 07:44:26;;;;;;;8.97;8.07;;;;;;;18.74;91.32;101095.91;5073606;28;20167;-74
2021/07/22 07:46:51;;;;;;;9.23;7.60;;;;;;;18.52;92.25;101093.66;5073558;28;20171;-74
2021/07/22 07:49:16;;;;;;;9.37;8.43;;;;;;;18.53;93.01;101093.31;5073290;28;20181;-73
2021/07/22 07:51:42;;;;;;;7.87;7.03;;;;;;;18.87;90.54;101105.78;5073018;28;20795;-73
2021/07/22 07:54:07;;;;;;;7.40;6.47;;;;;;;19.00;89.20;101101.03;5073206;28;20172;-73
2021/07/22 07:56:32;;;;;;;8.17;7.27;;;;;;;19.14;88.34;101100.63;5073012;28;20682;-73
2021/07/22 07:58:58;;;;;;;13.00;7.90;;;;;;;19.27;89.28;101097.44;5071812;28;20293;-73
2021/07/22 08:01:27;;;;;;;8.83;7.97;;;;;;;19.31;88.19;101101.09;5072748;28;20170;-73
2021/07/22 08:03:52;;;;;;;8.70;7.90;;;;;;;19.34;89.02;101096.81;5073065;28;20393;-73
2021/07/22 08:06:17;;;;;;;8.00;7.20;;;;;;;19.37;88.66;101098.06;5072947;28;20254;-73
2021/07/22 08:08:43;;;;;;;7.27;6.57;;;;;;;19.37;88.67;101101.63;5072773;28;20166;-74
2021/07/22 08:11:08;;;;;;;8.60;7.80;;;;;;;19.29;87.92;101100.66;5072606;28;20174;-73
2021/07/22 08:13:33;;;;;;;9.83;8.07;;;;;;;19.30;88.85;101098.69;5072938;28;20249;-73
2021/07/22 08:15:59;;;;;;;9.87;8.87;;;;;;;19.43;87.91;101091.94;5072763;28;20190;-73
2021/07/22 08:18:24;;;;;;;8.87;8.07;;;;;;;19.43;87.74;101096.66;5072808;28;20174;-74
2021/07/22 08:20:49;;;;;;;9.10;7.73;;;;;;;19.58;88.12;101093.94;5069558;28;20167;-74
2021/07/22 08:23:15;;;;;;;10.40;9.40;;;;;;;19.44;86.90;101099.06;5071376;28;20501;-73
2021/07/22 08:25:40;;;;;;;11.80;9.07;;;;;;;19.58;87.14;101099.47;5072653;28;20171;-73
2021/07/22 08:28:06;;;;;;;9.40;8.47;;;;;;;19.70;86.21;101095.03;5072588;28;20185;-73
2021/07/22 08:30:32;;;;;;;10.90;9.80;;;;;;;19.38;85.84;101100.47;5072565;28;20486;-74
2021/07/22 08:32:57;;;;;;;10.37;9.37;;;;;;;19.53;86.74;101101.69;5072225;28;20253;-73
2021/07/22 08:35:22;;;;;;;10.13;9.27;;;;;;;19.62;85.17;101102.34;5072312;28;20220;-74
2021/07/22 08:37:48;;;;;;;9.13;8.23;;;;;;;19.76;85.30;101102.69;5072344;28;20624;-73
2021/07/22 08:40:14;;;;;;;13.77;8.70;;;;;;;19.91;85.42;101099.13;5072355;28;20644;-73
2021/07/22 08:42:43;;;;;;;9.50;8.70;;;;;;;20.08;84.40;101097.94;5070781;28;20182;-74
2021/07/22 08:45:09;;;;;;;9.00;8.20;;;;;;;20.18;83.17;101089.06;5072193;28;20660;-74
2021/07/22 08:47:36;;;;;;;8.70;7.07;;;;;;;20.25;82.86;101093.97;5072179;28;20234;-74
2021/07/22 08:50:03;;;;;;;9.17;8.03;;;;;;;19.84;81.29;101095.38;5072075;28;20174;-73
2021/07/22 08:52:28;;;;;;;8.77;7.97;;;;;;;19.71;82.46;101091.88;5071902;28;20186;-73
2021/07/22 08:54:54;;;;;;;11.83;8.07;;;;;;;19.97;83.22;101091.34;5072048;28;20257;-73
2021/07/22 08:57:24;;;;;;;8.60;7.80;;;;;;;20.24;82.99;101094.34;5071927;28;20235;-74
2021/07/22 08:59:50;;;;;;;11.73;7.53;;;;;;;20.42;81.23;101090.84;5072437;28;20209;-74
2021/07/22 09:02:18;;;;;;;10.57;9.50;;;;;;;20.50;78.80;101091.81;5071598;28;20459;-73
2021/07/22 09:04:57;;;;;;;8.90;8.00;;;;;;;20.72;78.58;101096.66;5071824;28;20715;-73
2021/07/22 09:07:24;;;;;;;9.40;8.13;;;;;;;20.67;76.90;101096.13;5070567;28;20809;-74
2021/07/22 09:10:07;;;;;;;8.53;7.33;;;;;;;20.63;77.82;101096.06;5071679;28;20180;-73
2021/07/22 09:12:42;;;;;;;10.23;7.87;;;;;;;20.43;78.78;101091.66;5071542;28;20174;-73
2021/07/22 09:15:34;;;;;;;10.03;9.07;;;;;;;20.08;79.20;101095.16;5071643;28;20269;-73
2021/07/22 09:18:18;;;;;;;9.10;8.17;;;;;;;19.96;80.06;101086.94;5066246;28;20190;-73
2021/07/22 09:20:43;;;;;;;8.90;7.67;;;;;;;20.36;80.66;101086.69;5071002;28;20676;-73
2021/07/22 09:23:21;;;;;;;10.03;8.07;;;;;;;20.21;78.71;101090.31;5071651;28;20171;-74
2021/07/22 09:25:48;;;;;;;9.87;8.77;;;;;;;19.92;78.33;101092.41;5071497;28;20216;-73
2021/07/22 09:28:16;;;;;;;9.30;8.43;;;;;;;19.85;78.74;101083.94;5071343;28;20175;-74
2021/07/22 09:30:59;;;;;;;8.73;7.83;;;;;;;20.07;80.31;101093.56;5070791;28;20166;-74
2021/07/22 09:33:39;;;;;;;8.70;7.90;;;;;;;20.02;78.70;101084.72;5071219;28;20175;-73
2021/07/22 09:36:28;;;;;;;9.47;8.67;;;;;;;20.16;78.84;101090.59;5071304;28;20200;-73
2021/07/22 09:39:14;;;;;;;9.83;7.73;;;;;;;20.35;78.63;101090.66;5071040;28;20183;-74
2021/07/22 09:41:39;;;;;;;7.53;6.77;;;;;;;20.47;77.95;101093.34;5070892;28;20169;-73
2021/07/22 09:44:05;;;;;;;9.13;8.23;;;;;;;20.35;77.54;101093.44;5071196;28;20171;-74
2021/07/22 09:46:40;;;;;;;7.67;6.97;;;;;;;20.20;79.24;101097.84;5071656;28;20226;-73
2021/07/22 09:49:10;;;;;;;8.83;6.73;;;;;;;20.14;79.71;101096.53;5078614;28;20238;-74
2021/07/22 09:51:37;;;;;;;7.97;7.17;;;;;;;20.22;79.87;101108.56;5070834;28;20245;-73
2021/07/22 09:54:10;;;;;;;8.67;7.50;;;;;;;19.95;78.38;101101.97;5070873;28;20178;-73
2021/07/22 09:56:39;;;;;;;7.47;6.77;;;;;;;20.19;79.26;101106.53;5070755;28;20213;-73
2021/07/22 09:59:06;;;;;;;7.13;6.53;;;;;;;20.01;78.38;101099.75;5070870;28;20600;-74
2021/07/22 10:01:35;;;;;;;9.27;7.07;;;;;;;19.67;79.20;101101.25;5070450;28;20249;-73
2021/07/22 10:04:04;;;;;;;8.03;7.27;;;;;;;19.67;79.39;101104.84;5070842;28;20170;-73
2021/07/22 10:06:31;;;;;;;7.87;7.10;;;;;;;19.63;79.87;101103.94;5070706;28;20170;-72
2021/07/22 10:08:56;;;;;;;6.97;6.27;;;;;;;19.96;79.88;101103.59;5070584;28;20178;-73
2021/07/22 10:11:22;;;;;;;8.47;7.67;;;;;;;19.95;79.46;101096.44;5070352;28;20244;-73
2021/07/22 10:13:49;;;;;;;7.37;6.67;;;;;;;20.08;79.25;101095.16;5071009;28;20194;-73
2021/07/22 10:16:20;;;;;;;10.93;7.40;;;;;;;19.82;78.16;101103.25;5070498;28;20252;-74
2021/07/22 10:18:47;;;;;;;9.23;6.93;;;;;;;19.78;78.20;101097.59;5070394;28;20179;-73
2021/07/22 10:21:14;;;;;;;9.10;7.40;;;;;;;19.63;78.71;101092.84;5070314;28;20165;-73
2021/07/22 10:23:40;;;;;;;8.50;7.27;;;;;;;19.47;78.92;101087.28;5069184;28;20212;-74
2021/07/22 10:26:07;;;;;;;9.27;7.57;;;;;;;19.48;79.39;101094.44;5070483;28;20232;-73
2021/07/22 10:28:33;;;;;;;11.37;6.90;;;;;;;19.86;80.00;101090.28;5070441;28;20174;-73
2021/07/22 10:31:03;;;;;;;8.87;8.07;;;;;;;19.79;79.22;101087.31;5068813;28;20175;-73
2021/07/22 10:33:30;;;;;;;7.27;6.57;;;;;;;20.10;80.80;101083.72;5070372;28;20638;-73
2021/07/22 10:35:56;;;;;;;9.30;7.60;;;;;;;20.28;79.79;101084.94;5070192;28;20263;-73
2021/07/22 10:38:24;;;;;;;8.23;7.43;;;;;;;20.15;77.18;101087.03;5070326;28;20171;-73
2021/07/22 10:40:54;;;;;;;10.03;7.80;;;;;;;19.98;77.86;101079.09;5069991;28;20602;-73
2021/07/22 10:43:43;;;;;;;8.87;7.03;;;;;;;20.30;76.88;101076.25;5069470;28;20630;-73
2021/07/22 10:46:16;;;;;;;10.03;7.33;;;;;;;20.28;76.76;101078.59;5070255;28;20533;-73
2021/07/22 10:48:43;;;;;;;8.00;7.23;;;;;;;19.99;78.29;101075.16;5070553;28;20498;-73
2021/07/22 10:51:19;;;;;;;12.07;7.80;;;;;;;19.91;79.08;101065.03;5069974;28;20227;-73
2021/07/22 10:53:54;;;;;;;8.13;7.37;;;;;;;19.99;79.45;101068.81;5070640;28;20223;-73
2021/07/22 10:56:22;;;;;;;6.50;5.83;;;;;;;20.21;76.75;101082.00;5070017;28;20195;-73
2021/07/22 10:58:51;;;;;;;8.83;6.67;;;;;;;20.11;77.97;101069.50;5070295;28;20233;-73
2021/07/22 11:01:41;;;;;;;7.43;6.63;;;;;;;20.26;78.58;101062.31;5069751;28;20182;-73
2021/07/22 11:04:30;;;;;;;8.00;6.80;;;;;;;20.21;77.18;101062.56;5070102;28;20171;-73
2021/07/22 11:06:58;;;;;;;10.27;7.07;;;;;;;20.29;76.21;101058.00;5069943;28;20277;-73
2021/07/22 11:09:43;;;;;;;6.63;6.03;;;;;;;20.52;76.42;101056.16;5070210;28;20197;-73
2021/07/22 11:12:10;;;;;;;7.87;6.00;;;;;;;20.70;76.47;101060.13;5069750;28;20270;-73
2021/07/22 11:14:36;;;;;;;7.27;5.90;;;;;;;20.87;76.04;101050.53;5069934;28;20177;-73
2021/07/22 11:17:02;;;;;;;7.57;6.87;;;;;;;21.06;74.02;101044.97;5069811;28;20602;-73
2021/07/22 11:19:27;;;;;;;7.40;6.40;;;;;;;21.10;75.42;101039.47;5069581;28;20547;-73
2021/07/22 11:21:54;;;;;;;6.73;6.07;;;;;;;21.08;75.37;101044.59;5069650;28;20174;-73